createdAt,value
2023-02-27T00:00:44.646Z,1022.92
2023-02-27T00:01:44.644Z,1022.90
2023-02-27T00:02:44.662Z,1022.85
2023-02-27T00:03:44.682Z,1022.94
2023-02-27T00:04:44.612Z,1022.93
2023-02-27T00:05:44.596Z,1022.92
2023-02-27T00:06:44.589Z,1022.91
2023-02-27T00:07:44.613Z,1022.91
2023-02-27T00:08:44.609Z,1022.90
2023-02-27T00:09:44.561Z,1022.90
2023-02-27T00:10:44.540Z,1022.94
2023-02-27T00:11:44.536Z,1022.93
2023-02-27T00:12:44.539Z,1022.83
2023-02-27T00:13:44.535Z,1022.85
2023-02-27T00:14:44.509Z,1022.97
2023-02-27T00:15:44.532Z,1022.91
2023-02-27T00:16:44.487Z,1022.93
2023-02-27T00:17:44.480Z,1022.93
2023-02-27T00:18:44.474Z,1022.92
2023-02-27T00:19:44.460Z,1022.90
2023-02-27T00:20:44.445Z,1022.82
2023-02-27T00:21:44.442Z,1022.92
2023-02-27T00:22:44.429Z,1022.92
2023-02-27T00:23:44.415Z,1022.86
2023-02-27T00:24:44.422Z,1022.90
2023-02-27T00:25:44.412Z,1022.91
2023-02-27T00:26:44.414Z,1022.90
2023-02-27T00:27:44.377Z,1022.91
2023-02-27T00:28:44.361Z,1022.85
2023-02-27T00:29:44.354Z,1022.84
2023-02-27T00:30:44.361Z,1022.86
2023-02-27T00:31:44.431Z,1022.87
2023-02-27T00:32:44.361Z,1022.86
2023-02-27T00:33:44.308Z,1022.87
2023-02-27T00:34:44.303Z,1022.87
2023-02-27T00:35:44.290Z,1022.92
2023-02-27T00:36:44.269Z,1022.84
2023-02-27T00:37:44.272Z,1022.83
2023-02-27T00:38:44.270Z,1022.87
2023-02-27T00:39:44.257Z,1022.86
2023-02-27T00:40:44.252Z,1022.88
2023-02-27T00:41:44.239Z,1022.85
2023-02-27T00:42:44.209Z,1022.88
2023-02-27T00:43:44.199Z,1022.93
2023-02-27T00:44:44.198Z,1022.81
2023-02-27T00:45:44.185Z,1022.84
2023-02-27T00:46:44.281Z,1022.84
2023-02-27T00:47:44.180Z,1022.81
2023-02-27T00:48:44.146Z,1022.81
2023-02-27T00:49:44.140Z,1022.82
2023-02-27T00:50:44.140Z,1022.72
2023-02-27T00:51:44.119Z,1022.79
2023-02-27T00:52:44.137Z,1022.77
2023-02-27T00:53:44.119Z,1022.79
2023-02-27T00:54:44.085Z,1022.66
2023-02-27T00:55:44.074Z,1022.73
2023-02-27T00:56:44.091Z,1022.71
2023-02-27T00:57:44.123Z,1022.70
2023-02-27T00:58:44.066Z,1022.73
2023-02-27T00:59:44.038Z,1022.84
2023-02-27T01:00:44.064Z,1022.77
2023-02-27T01:01:44.023Z,1022.75
2023-02-27T01:02:44.065Z,1022.84
2023-02-27T01:03:44.019Z,1022.76
2023-02-27T01:04:43.994Z,1022.73
2023-02-27T01:05:43.997Z,1022.72
2023-02-27T01:06:43.970Z,1022.72
2023-02-27T01:07:43.960Z,1022.73
2023-02-27T01:08:43.951Z,1022.70
2023-02-27T01:09:43.953Z,1022.73
2023-02-27T01:10:43.939Z,1022.69
2023-02-27T01:11:43.913Z,1022.72
2023-02-27T01:12:43.921Z,1022.75
2023-02-27T01:13:43.893Z,1022.74
2023-02-27T01:14:43.896Z,1022.71
2023-02-27T01:15:43.889Z,1022.71
2023-02-27T01:16:43.933Z,1022.74
2023-02-27T01:17:43.861Z,1022.69
2023-02-27T01:18:43.841Z,1022.70
2023-02-27T01:19:43.857Z,1022.68
2023-02-27T01:20:43.821Z,1022.71
2023-02-27T01:21:43.829Z,1022.67
2023-02-27T01:22:43.816Z,1022.64
2023-02-27T01:23:43.794Z,1022.70
2023-02-27T01:24:43.790Z,1022.69
2023-02-27T01:25:43.786Z,1022.65
2023-02-27T01:26:43.786Z,1022.76
2023-02-27T01:27:43.751Z,1022.76
2023-02-27T01:28:43.765Z,1022.75
2023-02-27T01:29:43.731Z,1022.80
2023-02-27T01:30:43.805Z,1022.78
2023-02-27T01:31:43.847Z,1022.76
2023-02-27T01:32:43.760Z,1022.74
2023-02-27T01:33:43.695Z,1022.78
2023-02-27T01:34:43.689Z,1022.71
2023-02-27T01:35:43.690Z,1022.77
2023-02-27T01:36:43.666Z,1022.77
2023-02-27T01:37:43.652Z,1022.77
2023-02-27T01:38:43.643Z,1022.75
2023-02-27T01:39:43.625Z,1022.74
2023-02-27T01:40:43.617Z,1022.78
2023-02-27T01:41:43.622Z,1022.76
2023-02-27T01:42:43.612Z,1022.79
2023-02-27T01:43:43.589Z,1022.78
2023-02-27T01:44:43.606Z,1022.75
2023-02-27T01:45:43.661Z,1022.73
2023-02-27T01:46:43.567Z,1022.72
2023-02-27T01:47:43.631Z,1022.76
2023-02-27T01:48:43.546Z,1022.77
2023-02-27T01:49:43.521Z,1022.74
2023-02-27T01:50:43.513Z,1022.70
2023-02-27T01:51:43.506Z,1022.71
2023-02-27T01:52:43.497Z,1022.75
2023-02-27T01:53:43.508Z,1022.73
2023-02-27T01:54:43.499Z,1022.67
2023-02-27T01:55:43.457Z,1022.69
2023-02-27T01:56:43.458Z,1022.72
2023-02-27T01:57:43.454Z,1022.78
2023-02-27T01:58:43.436Z,1022.67
2023-02-27T01:59:43.426Z,1022.71
2023-02-27T02:00:43.442Z,1022.69
2023-02-27T02:01:43.404Z,1022.71
2023-02-27T02:02:43.403Z,1022.69
2023-02-27T02:03:43.378Z,1022.67
2023-02-27T02:04:43.366Z,1022.72
2023-02-27T02:05:43.377Z,1022.72
2023-02-27T02:06:43.343Z,1022.65
2023-02-27T02:07:43.344Z,1022.62
2023-02-27T02:08:43.340Z,1022.62
2023-02-27T02:09:43.336Z,1022.68
2023-02-27T02:10:43.308Z,1022.72
2023-02-27T02:11:43.303Z,1022.68
2023-02-27T02:12:43.280Z,1022.67
2023-02-27T02:13:43.271Z,1022.68
2023-02-27T02:14:43.280Z,1022.67
2023-02-27T02:15:43.250Z,1022.69
2023-02-27T02:16:43.317Z,1022.68
2023-02-27T02:17:43.244Z,1022.64
2023-02-27T02:18:43.226Z,1022.63
2023-02-27T02:19:43.226Z,1022.70
2023-02-27T02:20:43.200Z,1022.65
2023-02-27T02:21:43.197Z,1022.63
2023-02-27T02:22:43.186Z,1022.68
2023-02-27T02:23:43.191Z,1022.70
2023-02-27T02:24:43.170Z,1022.77
2023-02-27T02:25:43.156Z,1022.77
2023-02-27T02:26:43.162Z,1022.77
2023-02-27T02:27:43.135Z,1022.75
2023-02-27T02:28:43.124Z,1022.75
2023-02-27T02:29:43.123Z,1022.76
2023-02-27T02:30:43.141Z,1022.77
2023-02-27T02:31:43.408Z,1022.83
2023-02-27T02:32:43.168Z,1022.76
2023-02-27T02:33:43.065Z,1022.84
2023-02-27T02:34:43.062Z,1022.82
2023-02-27T02:35:43.060Z,1022.82
2023-02-27T02:36:43.043Z,1022.84
2023-02-27T02:37:43.051Z,1022.84
2023-02-27T02:38:43.013Z,1022.87
2023-02-27T02:39:43.019Z,1022.82
2023-02-27T02:40:43.021Z,1022.76
2023-02-27T02:41:42.988Z,1022.83
2023-02-27T02:42:43.029Z,1022.77
2023-02-27T02:43:43.031Z,1022.82
2023-02-27T02:44:42.987Z,1022.76
2023-02-27T02:45:42.955Z,1022.73
2023-02-27T02:46:42.941Z,1022.75
2023-02-27T02:47:42.927Z,1022.74
2023-02-27T02:48:42.954Z,1022.68
2023-02-27T02:49:42.906Z,1022.69
2023-02-27T02:50:42.903Z,1022.68
2023-02-27T02:51:42.888Z,1022.72
2023-02-27T02:52:42.879Z,1022.70
2023-02-27T02:53:42.895Z,1022.76
2023-02-27T02:54:42.867Z,1022.75
2023-02-27T02:55:42.863Z,1022.69
2023-02-27T02:56:42.842Z,1022.77
2023-02-27T02:57:42.824Z,1022.78
2023-02-27T02:58:42.818Z,1022.78
2023-02-27T02:59:42.810Z,1022.77
2023-02-27T03:00:42.811Z,1022.83
2023-02-27T03:01:42.821Z,1022.83
2023-02-27T03:02:42.775Z,1022.83
2023-02-27T03:03:42.763Z,1022.78
2023-02-27T03:04:42.890Z,1022.77
2023-02-27T03:05:42.753Z,1022.85
2023-02-27T03:06:42.741Z,1022.76
2023-02-27T03:07:42.800Z,1022.79
2023-02-27T03:08:42.710Z,1022.80
2023-02-27T03:09:42.717Z,1022.79
2023-02-27T03:10:42.694Z,1022.75
2023-02-27T03:11:42.718Z,1022.78
2023-02-27T03:12:42.680Z,1022.75
2023-02-27T03:13:42.664Z,1022.83
2023-02-27T03:14:42.659Z,1022.79
2023-02-27T03:15:42.664Z,1022.84
2023-02-27T03:16:42.640Z,1022.86
2023-02-27T03:17:42.633Z,1022.88
2023-02-27T03:18:42.610Z,1022.84
2023-02-27T03:19:42.610Z,1022.85
2023-02-27T03:20:42.622Z,1022.96
2023-02-27T03:21:42.584Z,1022.87
2023-02-27T03:22:42.572Z,1022.91
2023-02-27T03:23:42.565Z,1022.97
2023-02-27T03:24:42.552Z,1022.91
2023-02-27T03:25:42.537Z,1022.93
2023-02-27T03:26:42.535Z,1022.92
2023-02-27T03:27:42.526Z,1023.00
2023-02-27T03:28:42.507Z,1022.93
2023-02-27T03:29:42.497Z,1022.98
2023-02-27T03:30:42.549Z,1022.99
2023-02-27T03:31:42.537Z,1023.01
2023-02-27T03:32:42.501Z,1022.95
2023-02-27T03:33:42.449Z,1023.01
2023-02-27T03:34:42.439Z,1023.00
2023-02-27T03:35:42.443Z,1022.98
2023-02-27T03:36:42.440Z,1023.04
2023-02-27T03:37:42.413Z,1023.00
2023-02-27T03:38:42.416Z,1023.02
2023-02-27T03:39:42.393Z,1023.05
2023-02-27T03:40:42.378Z,1023.00
2023-02-27T03:41:42.394Z,1023.03
2023-02-27T03:42:42.366Z,1023.06
2023-02-27T03:43:42.352Z,1023.07
2023-02-27T03:44:42.356Z,1023.08
2023-02-27T03:45:42.340Z,1023.06
2023-02-27T03:46:42.452Z,1023.10
2023-02-27T03:47:42.320Z,1023.10
2023-02-27T03:48:42.301Z,1023.15
2023-02-27T03:49:42.299Z,1023.15
2023-02-27T03:50:42.281Z,1023.18
2023-02-27T03:51:42.276Z,1023.17
2023-02-27T03:52:42.275Z,1023.19
2023-02-27T03:53:42.263Z,1023.16
2023-02-27T03:54:42.256Z,1023.16
2023-02-27T03:55:42.243Z,1023.18
2023-02-27T03:56:42.239Z,1023.14
2023-02-27T03:57:42.209Z,1023.21
2023-02-27T03:58:42.211Z,1023.20
2023-02-27T03:59:42.188Z,1023.21
2023-02-27T04:00:42.197Z,1023.23
2023-02-27T04:01:42.182Z,1023.23
2023-02-27T04:02:42.183Z,1023.21
2023-02-27T04:03:42.153Z,1023.23
2023-02-27T04:04:42.194Z,1023.33
2023-02-27T04:05:42.126Z,1023.27
2023-02-27T04:06:42.115Z,1023.32
2023-02-27T04:07:42.103Z,1023.25
2023-02-27T04:08:42.128Z,1023.31
2023-02-27T04:09:42.094Z,1023.29
2023-02-27T04:10:42.091Z,1023.30
2023-02-27T04:11:42.063Z,1023.34
2023-02-27T04:12:43.356Z,1023.30
2023-02-27T04:13:42.053Z,1023.30
2023-02-27T04:14:42.127Z,1023.25
2023-02-27T04:15:42.021Z,1023.31
2023-02-27T04:16:42.014Z,1023.40
2023-02-27T04:17:42.009Z,1023.38
2023-02-27T04:18:42.007Z,1023.40
2023-02-27T04:19:41.991Z,1023.35
2023-02-27T04:20:41.991Z,1023.39
2023-02-27T04:21:41.977Z,1023.40
2023-02-27T04:22:41.956Z,1023.42
2023-02-27T04:23:41.940Z,1023.43
2023-02-27T04:24:41.954Z,1023.40
2023-02-27T04:25:41.932Z,1023.42
2023-02-27T04:26:41.926Z,1023.44
2023-02-27T04:27:41.928Z,1023.41
2023-02-27T04:28:41.893Z,1023.47
2023-02-27T04:29:41.896Z,1023.46
2023-02-27T04:30:41.871Z,1023.48
2023-02-27T04:31:41.958Z,1023.53
2023-02-27T04:32:42.026Z,1023.50
2023-02-27T04:33:41.846Z,1023.43
2023-02-27T04:34:41.833Z,1023.49
2023-02-27T04:35:41.824Z,1023.53
2023-02-27T04:36:41.820Z,1023.52
2023-02-27T04:37:41.811Z,1023.53
2023-02-27T04:38:41.795Z,1023.53
2023-02-27T04:39:41.790Z,1023.53
2023-02-27T04:40:41.798Z,1023.54
2023-02-27T04:41:41.784Z,1023.58
2023-02-27T04:42:41.755Z,1023.54
2023-02-27T04:43:41.743Z,1023.62
2023-02-27T04:44:41.746Z,1023.62
2023-02-27T04:45:41.767Z,1023.65
2023-02-27T04:46:41.717Z,1023.64
2023-02-27T04:47:41.716Z,1023.63
2023-02-27T04:48:41.701Z,1023.68
2023-02-27T04:49:41.696Z,1023.66
2023-02-27T04:50:41.675Z,1023.68
2023-02-27T04:51:41.683Z,1023.61
2023-02-27T04:52:41.672Z,1023.66
2023-02-27T04:53:41.650Z,1023.75
2023-02-27T04:54:41.648Z,1023.73
2023-02-27T04:55:41.644Z,1023.68
2023-02-27T04:56:41.634Z,1023.70
2023-02-27T04:57:41.619Z,1023.70
2023-02-27T04:58:41.609Z,1023.72
2023-02-27T04:59:41.614Z,1023.65
2023-02-27T05:00:41.575Z,1023.67
2023-02-27T05:01:41.615Z,1023.73
2023-02-27T05:02:41.743Z,1023.69
2023-02-27T05:03:41.584Z,1023.65
2023-02-27T05:04:41.551Z,1023.65
2023-02-27T05:05:41.526Z,1023.68
2023-02-27T05:06:41.520Z,1023.70
2023-02-27T05:07:41.515Z,1023.71
2023-02-27T05:08:41.502Z,1023.70
2023-02-27T05:09:41.494Z,1023.69
2023-02-27T05:10:41.493Z,1023.63
2023-02-27T05:11:41.467Z,1023.61
2023-02-27T05:12:41.478Z,1023.65
2023-02-27T05:13:41.449Z,1023.61
2023-02-27T05:14:41.452Z,1023.64
2023-02-27T05:15:41.482Z,1023.65
2023-02-27T05:16:41.462Z,1023.68
2023-02-27T05:17:41.417Z,1023.67
2023-02-27T05:18:41.398Z,1023.71
2023-02-27T05:19:41.381Z,1023.70
2023-02-27T05:20:41.389Z,1023.69
2023-02-27T05:21:41.371Z,1023.72
2023-02-27T05:22:41.347Z,1023.62
2023-02-27T05:23:41.343Z,1023.64
2023-02-27T05:24:41.326Z,1023.63
2023-02-27T05:25:41.332Z,1023.64
2023-02-27T05:26:41.331Z,1023.66
2023-02-27T05:27:41.294Z,1023.65
2023-02-27T05:28:42.326Z,1023.67
2023-02-27T05:29:41.276Z,1023.64
2023-02-27T05:30:41.299Z,1023.69
2023-02-27T05:31:41.279Z,1023.62
2023-02-27T05:32:41.317Z,1023.77
2023-02-27T05:33:41.244Z,1023.72
2023-02-27T05:34:41.232Z,1023.67
2023-02-27T05:35:41.232Z,1023.65
2023-02-27T05:36:41.227Z,1023.71
2023-02-27T05:37:41.208Z,1023.74
2023-02-27T05:38:41.188Z,1023.73
2023-02-27T05:39:41.172Z,1023.73
2023-02-27T05:40:41.170Z,1023.72
2023-02-27T05:41:41.165Z,1023.78
2023-02-27T05:42:41.142Z,1023.75
2023-02-27T05:43:41.152Z,1023.69
2023-02-27T05:44:41.159Z,1023.72
2023-02-27T05:45:41.207Z,1023.77
2023-02-27T05:46:41.118Z,1023.76
2023-02-27T05:47:41.096Z,1023.71
2023-02-27T05:48:41.100Z,1023.80
2023-02-27T05:49:41.073Z,1023.79
2023-02-27T05:50:41.061Z,1023.78
2023-02-27T05:51:41.052Z,1023.84
2023-02-27T05:52:41.048Z,1023.80
2023-02-27T05:53:41.048Z,1023.85
2023-02-27T05:54:41.017Z,1023.80
2023-02-27T05:55:41.009Z,1023.84
2023-02-27T05:56:40.995Z,1023.82
2023-02-27T05:57:41.003Z,1023.82
2023-02-27T05:58:41.004Z,1023.87
2023-02-27T05:59:40.985Z,1023.83
2023-02-27T06:00:40.997Z,1023.83
2023-02-27T06:01:40.960Z,1023.88
2023-02-27T06:02:40.939Z,1023.86
2023-02-27T06:03:41.072Z,1023.85
2023-02-27T06:04:40.938Z,1023.92
2023-02-27T06:05:40.936Z,1023.94
2023-02-27T06:06:40.907Z,1023.94
2023-02-27T06:07:40.888Z,1023.96
2023-02-27T06:08:40.885Z,1024.01
2023-02-27T06:09:40.889Z,1024.09
2023-02-27T06:10:40.865Z,1024.11
2023-02-27T06:11:40.860Z,1024.12
2023-02-27T06:12:40.843Z,1024.11
2023-02-27T06:13:42.104Z,1024.12
2023-02-27T06:14:40.854Z,1024.17
2023-02-27T06:15:40.813Z,1024.22
2023-02-27T06:16:40.838Z,1024.23
2023-02-27T06:17:40.794Z,1024.23
2023-02-27T06:18:40.797Z,1024.28
2023-02-27T06:19:40.772Z,1024.26
2023-02-27T06:20:40.803Z,1024.32
2023-02-27T06:21:40.752Z,1024.34
2023-02-27T06:22:40.745Z,1024.30
2023-02-27T06:23:40.737Z,1024.39
2023-02-27T06:24:40.729Z,1024.45
2023-02-27T06:25:40.714Z,1024.40
2023-02-27T06:26:40.717Z,1024.39
2023-02-27T06:27:40.700Z,1024.35
2023-02-27T06:28:40.675Z,1024.35
2023-02-27T06:29:40.662Z,1024.39
2023-02-27T06:30:40.699Z,1024.38
2023-02-27T06:31:40.659Z,1024.43
2023-02-27T06:32:40.654Z,1024.32
2023-02-27T06:33:40.630Z,1024.37
2023-02-27T06:34:40.616Z,1024.38
2023-02-27T06:35:40.674Z,1024.38
2023-02-27T06:36:40.634Z,1024.38
2023-02-27T06:37:40.584Z,1024.31
2023-02-27T06:38:40.571Z,1024.37
2023-02-27T06:39:40.570Z,1024.37
2023-02-27T06:40:40.556Z,1024.43
2023-02-27T06:41:40.542Z,1024.46
2023-02-27T06:42:40.551Z,1024.41
2023-02-27T06:43:40.532Z,1024.48
2023-02-27T06:44:40.517Z,1024.40
2023-02-27T06:45:40.513Z,1024.37
2023-02-27T06:46:40.581Z,1024.39
2023-02-27T06:47:40.495Z,1024.42
2023-02-27T06:48:40.502Z,1024.42
2023-02-27T06:49:40.465Z,1024.42
2023-02-27T06:50:40.446Z,1024.38
2023-02-27T06:51:40.442Z,1024.42
2023-02-27T06:52:40.432Z,1024.45
2023-02-27T06:53:40.422Z,1024.49
2023-02-27T06:54:40.415Z,1024.51
2023-02-27T06:55:40.404Z,1024.51
2023-02-27T06:56:40.398Z,1024.49
2023-02-27T06:57:40.387Z,1024.47
2023-02-27T06:58:40.382Z,1024.44
2023-02-27T06:59:40.379Z,1024.49
2023-02-27T07:00:40.357Z,1024.53
2023-02-27T07:01:40.397Z,1024.54
2023-02-27T07:02:40.327Z,1024.49
2023-02-27T07:03:40.309Z,1024.55
2023-02-27T07:04:40.442Z,1024.61
2023-02-27T07:05:40.310Z,1024.55
2023-02-27T07:07:34.631Z,1024.57
2023-02-27T07:07:41.273Z,1024.56
2023-02-27T07:08:54.240Z,1024.59
2023-02-27T07:09:41.256Z,1024.54
2023-02-27T07:10:40.266Z,1024.54
2023-02-27T07:11:40.237Z,1024.55
2023-02-27T07:12:40.228Z,1024.36
2023-02-27T07:13:40.215Z,1024.41
2023-02-27T07:14:40.203Z,1024.36
2023-02-27T07:15:40.208Z,1024.42
2023-02-27T07:16:40.177Z,1024.36
2023-02-27T07:17:40.180Z,1024.41
2023-02-27T07:18:40.173Z,1024.41
2023-02-27T07:19:40.158Z,1024.46
2023-02-27T07:20:40.188Z,1024.54
2023-02-27T07:21:40.125Z,1024.54
2023-02-27T07:22:40.114Z,1024.50
2023-02-27T07:23:40.121Z,1024.57
2023-02-27T07:24:40.111Z,1024.61
2023-02-27T07:25:40.089Z,1024.63
2023-02-27T07:26:40.100Z,1024.64
2023-02-27T07:27:40.077Z,1024.78
2023-02-27T07:28:40.144Z,1024.73
2023-02-27T07:29:40.052Z,1024.74
2023-02-27T07:30:40.033Z,1024.84
2023-02-27T07:31:40.024Z,1024.81
2023-02-27T07:32:40.014Z,1024.83
2023-02-27T07:33:40.010Z,1024.82
2023-02-27T07:34:40.007Z,1024.85
2023-02-27T07:35:40.015Z,1024.87
2023-02-27T07:36:40.001Z,1024.88
2023-02-27T07:37:39.972Z,1024.92
2023-02-27T07:38:39.961Z,1024.86
2023-02-27T07:39:39.953Z,1024.89
2023-02-27T07:40:39.976Z,1024.86
2023-02-27T07:41:39.947Z,1024.85
2023-02-27T07:42:39.919Z,1024.91
2023-02-27T07:43:39.923Z,1024.83
2023-02-27T07:44:39.925Z,1024.86
2023-02-27T07:45:39.906Z,1024.80
2023-02-27T07:46:39.932Z,1024.87
2023-02-27T07:47:39.880Z,1024.92
2023-02-27T07:48:39.868Z,1024.92
2023-02-27T07:49:39.847Z,1024.89
2023-02-27T07:50:39.852Z,1024.89
2023-02-27T07:51:39.831Z,1024.87
2023-02-27T07:52:39.837Z,1024.86
2023-02-27T07:53:39.858Z,1024.85
2023-02-27T07:54:39.796Z,1024.88
2023-02-27T07:55:39.816Z,1024.90
2023-02-27T07:56:39.790Z,1024.82
2023-02-27T07:57:39.783Z,1024.83
2023-02-27T07:58:39.753Z,1024.85
2023-02-27T07:59:39.756Z,1024.85
2023-02-27T08:00:39.752Z,1024.86
2023-02-27T08:01:39.739Z,1024.93
2023-02-27T08:02:39.784Z,1024.98
2023-02-27T08:03:39.728Z,1024.97
2023-02-27T08:04:39.774Z,1024.98
2023-02-27T08:05:39.685Z,1024.91
2023-02-27T08:06:39.691Z,1024.92
2023-02-27T08:07:39.677Z,1024.93
2023-02-27T08:08:39.674Z,1024.96
2023-02-27T08:09:39.668Z,1024.95
2023-02-27T08:10:39.643Z,1024.96
2023-02-27T08:11:39.629Z,1024.94
2023-02-27T08:12:39.626Z,1025.01
2023-02-27T08:13:59.702Z,1025.03
2023-02-27T08:14:40.592Z,1025.04
2023-02-27T08:15:39.585Z,1025.09
2023-02-27T08:16:39.722Z,1025.04
2023-02-27T08:17:39.559Z,1025.13
2023-02-27T08:18:39.547Z,1025.05
2023-02-27T08:19:39.544Z,1025.05
2023-02-27T08:20:39.536Z,1025.02
2023-02-27T08:21:39.522Z,1025.02
2023-02-27T08:22:39.529Z,1025.06
2023-02-27T08:23:41.225Z,1025.09
2023-02-27T08:24:39.508Z,1025.06
2023-02-27T08:25:39.506Z,1025.16
2023-02-27T08:26:39.471Z,1025.13
2023-02-27T08:27:39.466Z,1025.14
2023-02-27T08:28:39.446Z,1025.15
2023-02-27T08:29:39.443Z,1025.15
2023-02-27T08:30:39.434Z,1025.23
2023-02-27T08:31:39.520Z,1025.23
2023-02-27T08:32:39.438Z,1025.26
2023-02-27T08:33:39.410Z,1025.26
2023-02-27T08:34:39.386Z,1025.19
2023-02-27T08:35:39.396Z,1025.20
2023-02-27T08:36:39.353Z,1025.20
2023-02-27T08:37:39.362Z,1025.22
2023-02-27T08:38:39.359Z,1025.19
2023-02-27T08:39:39.341Z,1025.24
2023-02-27T08:40:39.341Z,1025.18
2023-02-27T08:41:39.334Z,1025.17
2023-02-27T08:42:39.308Z,1025.19
2023-02-27T08:43:39.305Z,1025.22
2023-02-27T08:44:39.272Z,1025.15
2023-02-27T08:45:39.303Z,1025.23
2023-02-27T08:46:39.254Z,1025.26
2023-02-27T08:47:39.247Z,1025.24
2023-02-27T08:48:39.238Z,1025.23
2023-02-27T08:49:39.243Z,1025.30
2023-02-27T08:50:39.211Z,1025.23
2023-02-27T08:51:39.209Z,1025.24
2023-02-27T08:52:39.217Z,1025.21
2023-02-27T08:53:39.182Z,1025.17
2023-02-27T08:54:39.176Z,1025.18
2023-02-27T08:55:39.154Z,1025.23
2023-02-27T08:56:39.178Z,1025.22
2023-02-27T08:57:39.143Z,1025.21
2023-02-27T08:58:39.129Z,1025.13
2023-02-27T08:59:39.133Z,1025.17
2023-02-27T09:00:39.136Z,1025.19
2023-02-27T09:01:39.106Z,1025.23
2023-02-27T09:02:39.161Z,1025.18
2023-02-27T09:03:39.087Z,1025.19
2023-02-27T09:04:39.102Z,1025.25
2023-02-27T09:05:39.060Z,1025.23
2023-02-27T09:06:39.047Z,1025.18
2023-02-27T09:07:39.044Z,1025.19
2023-02-27T09:08:39.050Z,1025.22
2023-02-27T09:09:39.020Z,1025.20
2023-02-27T09:10:39.027Z,1025.22
2023-02-27T09:11:39.009Z,1025.13
2023-02-27T09:12:39.031Z,1025.17
2023-02-27T09:13:38.986Z,1025.13
2023-02-27T09:14:38.975Z,1025.22
2023-02-27T09:15:38.955Z,1025.23
2023-02-27T09:16:39.061Z,1025.20
2023-02-27T09:17:38.937Z,1025.20
2023-02-27T09:18:38.929Z,1025.23
2023-02-27T09:19:38.915Z,1025.23
2023-02-27T09:20:38.893Z,1025.28
2023-02-27T09:21:38.893Z,1025.22
2023-02-27T09:22:38.888Z,1025.20
2023-02-27T09:23:38.874Z,1025.25
2023-02-27T09:24:38.858Z,1025.25
2023-02-27T09:25:38.848Z,1025.27
2023-02-27T09:26:45.210Z,1025.19
2023-02-27T09:27:39.855Z,1025.22
2023-02-27T09:28:38.846Z,1025.21
2023-02-27T09:29:38.807Z,1025.28
2023-02-27T09:30:38.797Z,1025.23
2023-02-27T09:31:47.820Z,1025.25
2023-02-27T09:32:47.656Z,1025.27
2023-02-27T09:33:46.300Z,1025.21
2023-02-27T09:34:38.752Z,1025.29
2023-02-27T09:35:38.810Z,1025.32
2023-02-27T09:36:38.726Z,1025.34
2023-02-27T09:37:38.727Z,1025.35
2023-02-27T09:38:41.002Z,1025.40
2023-02-27T09:39:38.696Z,1025.39
2023-02-27T09:40:38.706Z,1025.38
2023-02-27T09:41:38.679Z,1025.34
2023-02-27T09:42:38.678Z,1025.45
2023-02-27T09:43:38.665Z,1025.38
2023-02-27T09:44:46.053Z,1025.40
2023-02-27T09:45:39.728Z,1025.40
2023-02-27T09:46:38.628Z,1025.47
2023-02-27T09:47:38.637Z,1025.43
2023-02-27T09:48:38.604Z,1025.46
2023-02-27T09:49:38.602Z,1025.50
2023-02-27T09:50:38.586Z,1025.48
2023-02-27T09:51:38.571Z,1025.53
2023-02-27T09:52:38.565Z,1025.47
2023-02-27T09:53:38.561Z,1025.46
2023-02-27T09:54:38.541Z,1025.52
2023-02-27T09:55:38.524Z,1025.48
2023-02-27T09:56:38.539Z,1025.52
2023-02-27T09:57:38.519Z,1025.48
2023-02-27T09:58:38.492Z,1025.48
2023-02-27T09:59:38.491Z,1025.55
2023-02-27T10:00:38.506Z,1025.59
2023-02-27T10:01:38.480Z,1025.57
2023-02-27T10:02:38.471Z,1025.53
2023-02-27T10:03:38.502Z,1025.52
2023-02-27T10:04:38.443Z,1025.58
2023-02-27T10:05:38.425Z,1025.54
2023-02-27T10:06:38.407Z,1025.55
2023-02-27T10:07:38.404Z,1025.58
2023-02-27T10:08:38.389Z,1025.62
2023-02-27T10:09:38.384Z,1025.60
2023-02-27T10:10:38.373Z,1025.64
2023-02-27T10:11:38.354Z,1025.64
2023-02-27T10:12:38.357Z,1025.65
2023-02-27T10:13:38.346Z,1025.65
2023-02-27T10:14:38.342Z,1025.63
2023-02-27T10:15:38.314Z,1025.70
2023-02-27T10:16:38.381Z,1025.69
2023-02-27T10:17:38.293Z,1025.69
2023-02-27T10:18:38.294Z,1025.69
2023-02-27T10:19:38.306Z,1025.62
2023-02-27T10:20:38.273Z,1025.63
2023-02-27T10:21:38.262Z,1025.68
2023-02-27T10:22:38.261Z,1025.63
2023-02-27T10:23:38.234Z,1025.69
2023-02-27T10:24:38.224Z,1025.65
2023-02-27T10:25:38.223Z,1025.67
2023-02-27T10:26:38.222Z,1025.72
2023-02-27T10:27:38.197Z,1025.69
2023-02-27T10:28:38.183Z,1025.63
2023-02-27T10:29:38.175Z,1025.63
2023-02-27T10:30:38.210Z,1025.53
2023-02-27T10:31:38.168Z,1025.56
2023-02-27T10:32:38.173Z,1025.57
2023-02-27T10:33:38.139Z,1025.58
2023-02-27T10:34:38.124Z,1025.55
2023-02-27T10:35:38.171Z,1025.55
2023-02-27T10:36:38.132Z,1025.55
2023-02-27T10:37:38.101Z,1025.59
2023-02-27T10:38:38.094Z,1025.60
2023-02-27T10:39:38.087Z,1025.56
2023-02-27T10:40:38.076Z,1025.60
2023-02-27T10:41:38.116Z,1025.59
2023-02-27T10:42:39.605Z,1025.63
2023-02-27T10:43:38.029Z,1025.57
2023-02-27T10:44:38.036Z,1025.68
2023-02-27T10:45:39.027Z,1025.58
2023-02-27T10:46:38.384Z,1025.61
2023-02-27T10:47:37.991Z,1025.66
2023-02-27T10:48:38.023Z,1025.64
2023-02-27T10:49:37.971Z,1025.67
2023-02-27T10:50:37.968Z,1025.64
2023-02-27T10:51:38.315Z,1025.60
2023-02-27T10:52:37.925Z,1025.64
2023-02-27T10:53:37.918Z,1025.67
2023-02-27T10:54:37.925Z,1025.64
2023-02-27T10:55:37.890Z,1025.63
2023-02-27T10:56:37.884Z,1025.61
2023-02-27T10:57:37.873Z,1025.59
2023-02-27T10:58:37.875Z,1025.63
2023-02-27T10:59:37.862Z,1025.60
2023-02-27T11:00:37.853Z,1025.56
2023-02-27T11:01:37.856Z,1025.57
2023-02-27T11:02:37.859Z,1025.55
2023-02-27T11:03:40.640Z,1025.67
2023-02-27T11:04:38.037Z,1025.56
2023-02-27T11:05:37.792Z,1025.56
2023-02-27T11:06:37.771Z,1025.62
2023-02-27T11:07:37.777Z,1025.61
2023-02-27T11:08:37.758Z,1025.66
2023-02-27T11:09:37.740Z,1025.72
2023-02-27T11:10:37.744Z,1025.73
2023-02-27T11:11:37.747Z,1025.70
2023-02-27T11:12:37.715Z,1025.75
2023-02-27T11:13:37.714Z,1025.80
2023-02-27T11:14:37.685Z,1025.69
2023-02-27T11:15:37.707Z,1025.66
2023-02-27T11:16:37.682Z,1025.69
2023-02-27T11:17:37.683Z,1025.59
2023-02-27T11:18:37.644Z,1025.64
2023-02-27T11:19:37.656Z,1025.66
2023-02-27T11:20:37.657Z,1025.62
2023-02-27T11:21:37.637Z,1025.61
2023-02-27T11:22:37.612Z,1025.60
2023-02-27T11:23:37.602Z,1025.61
2023-02-27T11:24:37.587Z,1025.60
2023-02-27T11:25:37.582Z,1025.57
2023-02-27T11:26:37.582Z,1025.54
2023-02-27T11:27:37.561Z,1025.54
2023-02-27T11:28:37.555Z,1025.54
2023-02-27T11:29:37.551Z,1025.53
2023-02-27T11:30:37.540Z,1025.63
2023-02-27T11:31:37.555Z,1025.59
2023-02-27T11:32:37.505Z,1025.62
2023-02-27T11:33:37.501Z,1025.51
2023-02-27T11:34:37.501Z,1025.51
2023-02-27T11:35:37.530Z,1025.57
2023-02-27T11:36:37.481Z,1025.57
2023-02-27T11:37:37.462Z,1025.54
2023-02-27T11:38:37.456Z,1025.53
2023-02-27T11:39:37.438Z,1025.52
2023-02-27T11:40:44.964Z,1025.56
2023-02-27T11:41:45.020Z,1025.55
2023-02-27T11:42:44.936Z,1025.62
2023-02-27T11:43:46.297Z,1025.61
2023-02-27T11:44:50.571Z,1025.56
2023-02-27T11:46:05.274Z,1025.57
2023-02-27T11:46:47.619Z,1025.56
2023-02-27T11:47:38.400Z,1025.52
2023-02-27T11:48:37.333Z,1025.52
2023-02-27T11:49:37.324Z,1025.49
2023-02-27T11:50:37.348Z,1025.47
2023-02-27T11:51:37.313Z,1025.48
2023-02-27T11:52:37.321Z,1025.50
2023-02-27T11:53:37.295Z,1025.43
2023-02-27T11:54:37.285Z,1025.39
2023-02-27T11:55:37.287Z,1025.45
2023-02-27T11:56:37.299Z,1025.49
2023-02-27T11:57:37.261Z,1025.49
2023-02-27T11:58:37.233Z,1025.48
2023-02-27T11:59:37.228Z,1025.45
2023-02-27T12:00:37.224Z,1025.43
2023-02-27T12:01:37.203Z,1025.49
2023-02-27T12:02:39.289Z,1025.49
2023-02-27T12:03:37.244Z,1025.43
2023-02-27T12:04:37.179Z,1025.41
2023-02-27T12:05:37.172Z,1025.37